createdAt,value
2022-09-15T00:00:54.074Z,15.80
2022-09-15T00:03:23.120Z,15.80
2022-09-15T00:05:52.919Z,15.70
2022-09-15T00:08:20.855Z,15.70
2022-09-15T00:10:50.168Z,15.70
2022-09-15T00:13:18.607Z,15.60
2022-09-15T00:15:46.597Z,15.60
2022-09-15T00:18:15.896Z,15.50
2022-09-15T00:20:45.358Z,15.50
2022-09-15T00:23:15.353Z,15.50
2022-09-15T00:25:44.671Z,15.50
2022-09-15T00:28:13.336Z,15.40
2022-09-15T00:30:42.675Z,15.40
2022-09-15T00:33:10.942Z,15.30
2022-09-15T00:35:41.418Z,15.30
2022-09-15T00:38:10.794Z,15.30
2022-09-15T00:40:45.754Z,15.30
2022-09-15T00:43:14.026Z,15.30
2022-09-15T00:45:42.320Z,15.30
2022-09-15T00:48:13.521Z,15.40
2022-09-15T00:50:46.167Z,15.40
2022-09-15T00:53:15.359Z,15.50
2022-09-15T00:55:47.410Z,15.50
2022-09-15T00:58:21.206Z,15.50
2022-09-15T01:00:55.700Z,16.20
2022-09-15T01:03:24.113Z,15.60
2022-09-15T01:05:57.404Z,15.60
2022-09-15T01:08:32.763Z,15.70
2022-09-15T01:11:00.873Z,15.70
2022-09-15T01:13:29.735Z,15.70
2022-09-15T01:19:17.135Z,15.70
2022-09-15T01:21:47.198Z,15.70
2022-09-15T01:24:42.437Z,15.70
2022-09-15T01:27:42.868Z,15.70
2022-09-15T01:30:15.365Z,15.70
2022-09-15T01:33:03.938Z,15.70
2022-09-15T01:35:55.868Z,15.70
2022-09-15T01:38:31.720Z,15.70
2022-09-15T01:41:05.485Z,15.70
2022-09-15T01:43:36.559Z,15.70
2022-09-15T01:46:08.131Z,15.70
2022-09-15T01:48:38.297Z,15.70
2022-09-15T01:51:08.083Z,16.00
2022-09-15T01:53:36.397Z,15.70
2022-09-15T01:56:08.570Z,15.70
2022-09-15T01:58:38.871Z,15.80
2022-09-15T02:01:13.732Z,15.70
2022-09-15T02:03:45.803Z,15.70
2022-09-15T02:06:22.238Z,15.70
2022-09-15T02:08:55.096Z,15.90
2022-09-15T02:11:28.219Z,15.70
2022-09-15T02:14:03.419Z,15.70
2022-09-15T02:16:36.220Z,15.70
2022-09-15T02:19:11.274Z,15.70
2022-09-15T02:21:53.992Z,16.10
2022-09-15T02:24:29.743Z,15.70
2022-09-15T02:26:58.620Z,15.70
2022-09-15T02:29:29.074Z,15.70
2022-09-15T02:32:02.646Z,15.70
2022-09-15T02:34:38.029Z,15.80
2022-09-15T02:37:07.481Z,15.70
2022-09-15T02:39:47.128Z,15.70
2022-09-15T02:42:24.560Z,15.80
2022-09-15T02:44:53.202Z,15.70
2022-09-15T02:47:22.959Z,15.70
2022-09-15T02:49:50.883Z,15.70
2022-09-15T02:52:18.798Z,15.70
2022-09-15T02:54:46.737Z,15.70
2022-09-15T02:57:14.974Z,15.70
2022-09-15T03:00:00.553Z,15.70
2022-09-15T03:02:30.195Z,15.80
2022-09-15T03:04:58.147Z,15.70
2022-09-15T03:07:27.041Z,15.60
2022-09-15T03:09:55.033Z,15.70
2022-09-15T03:12:22.955Z,15.60
2022-09-15T03:14:50.890Z,15.60
2022-09-15T03:17:18.891Z,15.50
2022-09-15T03:19:48.158Z,15.80
2022-09-15T03:22:16.056Z,15.60
2022-09-15T03:24:43.933Z,15.60
2022-09-15T03:27:11.859Z,15.60
2022-09-15T03:29:39.759Z,15.60
2022-09-15T03:32:07.643Z,15.60
2022-09-15T03:34:35.580Z,15.60
2022-09-15T03:37:05.544Z,15.60
2022-09-15T03:39:33.507Z,15.60
2022-09-15T03:42:01.414Z,15.60
2022-09-15T03:44:29.333Z,15.60
2022-09-15T03:46:58.218Z,15.80
2022-09-15T03:49:26.367Z,15.60
2022-09-15T03:51:54.829Z,15.60
2022-09-15T03:54:24.082Z,15.60
2022-09-15T03:56:52.091Z,15.80
2022-09-15T03:59:21.159Z,15.70
2022-09-15T04:01:50.221Z,15.60
2022-09-15T04:04:18.612Z,15.60
2022-09-15T04:06:46.517Z,15.90
2022-09-15T04:09:14.539Z,15.70
2022-09-15T04:11:43.796Z,15.70
2022-09-15T04:14:12.029Z,15.70
2022-09-15T04:16:40.004Z,15.60
2022-09-15T04:19:07.929Z,15.60
2022-09-15T04:21:35.935Z,15.80
2022-09-15T04:24:05.967Z,15.70
2022-09-15T04:26:36.046Z,16.30
2022-09-15T04:29:11.653Z,15.60
2022-09-15T04:31:39.591Z,15.70
2022-09-15T04:34:07.590Z,15.70
2022-09-15T04:36:35.472Z,15.60
2022-09-15T04:39:03.390Z,15.60
2022-09-15T04:41:31.354Z,15.70
2022-09-15T04:43:59.218Z,15.70
2022-09-15T04:46:28.585Z,15.70
2022-09-15T04:48:57.141Z,15.70
2022-09-15T04:51:25.566Z,15.60
2022-09-15T04:53:53.805Z,15.70
2022-09-15T04:56:23.538Z,15.60
2022-09-15T04:58:53.658Z,15.70
2022-09-15T05:01:23.716Z,15.60
2022-09-15T05:03:53.537Z,15.60
2022-09-15T05:06:25.527Z,15.80
2022-09-15T05:08:54.975Z,15.60
2022-09-15T05:11:23.418Z,15.70
2022-09-15T05:13:51.833Z,15.60
2022-09-15T05:16:22.197Z,15.60
2022-09-15T05:18:53.787Z,15.50
2022-09-15T05:21:23.255Z,15.60
2022-09-15T05:23:52.788Z,15.50
2022-09-15T05:26:22.433Z,15.50
2022-09-15T05:28:50.651Z,15.50
2022-09-15T05:31:20.085Z,15.60
2022-09-15T05:33:49.664Z,15.50
2022-09-15T05:36:21.145Z,15.50
2022-09-15T05:38:49.175Z,15.50
2022-09-15T05:41:19.136Z,15.40
2022-09-15T05:43:48.534Z,15.50
2022-09-15T05:46:17.401Z,15.50
2022-09-15T05:48:46.321Z,15.40
2022-09-15T05:51:15.216Z,15.50
2022-09-15T05:53:44.546Z,15.40
2022-09-15T05:56:14.184Z,15.50
2022-09-15T05:58:43.741Z,15.40
2022-09-15T06:01:15.519Z,15.80
2022-09-15T06:03:43.520Z,15.50
2022-09-15T06:06:12.062Z,15.40
2022-09-15T06:08:44.035Z,15.50
2022-09-15T06:11:15.107Z,15.50
2022-09-15T06:13:43.959Z,15.60
2022-09-15T06:16:13.277Z,15.60
2022-09-15T06:18:42.402Z,15.60
2022-09-15T06:21:13.008Z,15.80
2022-09-15T06:23:41.626Z,15.60
2022-09-15T06:26:12.026Z,15.70
2022-09-15T06:28:43.183Z,15.60
2022-09-15T06:31:12.509Z,15.70
2022-09-15T06:33:44.394Z,15.70
2022-09-15T06:36:12.991Z,15.70
2022-09-15T06:38:41.852Z,15.70
2022-09-15T06:41:10.455Z,15.80
2022-09-15T06:43:38.701Z,15.80
2022-09-15T06:46:10.083Z,15.90
2022-09-15T06:48:38.579Z,15.90
2022-09-15T06:51:07.874Z,15.90
2022-09-15T06:53:38.098Z,16.00
2022-09-15T06:56:07.818Z,16.00
2022-09-15T06:58:37.102Z,16.10
2022-09-15T07:01:09.791Z,16.10
2022-09-15T07:03:38.241Z,16.10
2022-09-15T07:06:07.230Z,16.60
2022-09-15T07:08:35.275Z,16.20
2022-09-15T07:11:03.160Z,16.20
2022-09-15T07:13:31.387Z,16.30
2022-09-15T07:16:01.192Z,16.30
2022-09-15T07:18:30.922Z,16.30
2022-09-15T07:21:00.919Z,16.40
2022-09-15T07:23:29.310Z,16.80
2022-09-15T07:26:06.885Z,16.50
2022-09-15T07:28:34.942Z,16.80
2022-09-15T07:31:03.095Z,16.50
2022-09-15T07:33:32.437Z,16.70
2022-09-15T07:36:02.393Z,16.60
2022-09-15T07:38:30.461Z,16.60
2022-09-15T07:41:04.120Z,16.60
2022-09-15T07:43:32.159Z,16.60
2022-09-15T07:46:00.853Z,16.60
2022-09-15T07:48:29.028Z,16.70
2022-09-15T07:50:59.857Z,16.80
2022-09-15T07:53:29.338Z,16.80
2022-09-15T07:55:57.648Z,16.90
2022-09-15T07:58:25.862Z,16.90
2022-09-15T08:00:53.957Z,16.80
2022-09-15T08:03:22.005Z,17.00
2022-09-15T08:05:50.225Z,17.00
2022-09-15T08:08:19.438Z,17.10
2022-09-15T08:10:47.339Z,17.00
2022-09-15T08:13:15.182Z,17.10
2022-09-15T08:15:44.079Z,17.00
2022-09-15T08:18:12.328Z,17.00
2022-09-15T08:20:40.615Z,16.90
2022-09-15T08:23:08.587Z,17.10
2022-09-15T08:25:38.088Z,17.10
2022-09-15T08:28:06.414Z,17.10
2022-09-15T08:30:34.393Z,17.10
2022-09-15T08:33:02.260Z,17.10
2022-09-15T08:35:32.419Z,17.10
2022-09-15T08:38:00.292Z,17.30
2022-09-15T08:40:33.514Z,17.10
2022-09-15T08:43:13.878Z,17.10
2022-09-15T08:45:48.833Z,17.10
2022-09-15T08:48:20.933Z,17.20
2022-09-15T08:50:53.021Z,17.30
2022-09-15T08:53:25.783Z,17.30
2022-09-15T08:55:56.138Z,17.50
2022-09-15T08:58:27.014Z,17.50
2022-09-15T09:01:03.845Z,17.60
2022-09-15T09:03:49.191Z,17.80
2022-09-15T09:06:27.682Z,17.80
2022-09-15T09:09:13.022Z,17.90
2022-09-15T09:12:00.072Z,17.90
2022-09-15T09:14:38.659Z,18.00
2022-09-15T09:17:24.744Z,18.00
2022-09-15T09:20:13.369Z,18.10
2022-09-15T09:22:44.741Z,18.10
2022-09-15T09:25:26.519Z,18.20
2022-09-15T09:27:56.407Z,18.10
2022-09-15T09:30:28.441Z,18.40
2022-09-15T09:33:10.503Z,18.30
2022-09-15T09:35:45.019Z,18.50
2022-09-15T09:38:17.446Z,18.50
2022-09-15T09:40:45.490Z,18.60
2022-09-15T09:43:13.458Z,18.60
2022-09-15T09:45:42.762Z,18.70
2022-09-15T09:48:19.115Z,18.80
2022-09-15T09:50:47.884Z,18.60
2022-09-15T09:53:36.414Z,18.60
2022-09-15T09:56:19.317Z,18.90
2022-09-15T09:58:47.206Z,18.80
2022-09-15T10:01:18.313Z,18.80
2022-09-15T10:03:46.789Z,18.90
2022-09-15T10:06:16.946Z,18.90
2022-09-15T10:08:55.878Z,19.10
2022-09-15T10:11:40.461Z,19.10
2022-09-15T10:14:17.375Z,19.30
2022-09-15T10:16:57.170Z,19.30
2022-09-15T10:19:25.099Z,19.40
2022-09-15T10:21:53.143Z,19.40
2022-09-15T10:24:34.171Z,19.40
2022-09-15T10:27:24.193Z,19.40
2022-09-15T10:29:52.126Z,19.50
2022-09-15T10:32:29.903Z,19.40
2022-09-15T10:35:02.387Z,19.50
2022-09-15T10:37:36.014Z,19.60
2022-09-15T10:40:18.436Z,19.50
2022-09-15T10:42:49.873Z,19.50
2022-09-15T10:45:25.834Z,19.40
2022-09-15T10:48:12.460Z,19.40
2022-09-15T10:50:50.578Z,19.50
2022-09-15T10:53:25.409Z,19.70
2022-09-15T10:56:05.279Z,19.50
2022-09-15T10:58:49.471Z,19.50
2022-09-15T11:01:31.103Z,19.30
2022-09-15T11:04:34.765Z,19.30
2022-09-15T11:07:12.485Z,19.20
2022-09-15T11:09:46.412Z,19.30
2022-09-15T11:12:30.550Z,19.10
2022-09-15T11:15:17.318Z,19.20
2022-09-15T11:17:56.430Z,19.20
2022-09-15T11:20:49.408Z,19.20
2022-09-15T11:23:22.683Z,19.10
2022-09-15T11:25:56.942Z,19.10
2022-09-15T11:28:29.968Z,19.10
2022-09-15T11:31:02.428Z,19.10
2022-09-15T11:33:35.467Z,19.10
2022-09-15T11:36:10.618Z,19.20
2022-09-15T11:38:47.995Z,19.10
2022-09-15T11:41:20.667Z,19.10
2022-09-15T11:44:02.818Z,19.20
2022-09-15T11:46:44.074Z,19.10
2022-09-15T11:49:17.369Z,19.10
2022-09-15T11:51:53.845Z,19.10
2022-09-15T11:54:31.622Z,19.50
2022-09-15T11:57:00.617Z,19.30
2022-09-15T11:59:35.352Z,19.30
2022-09-15T12:02:17.824Z,19.30
2022-09-15T12:05:03.306Z,19.40
2022-09-15T12:07:37.071Z,19.50
2022-09-15T12:10:08.155Z,19.70
2022-09-15T12:12:37.083Z,19.50
2022-09-15T12:15:06.409Z,19.80
2022-09-15T12:17:41.348Z,19.00
2022-09-15T12:20:20.060Z,19.80
2022-09-15T12:22:57.626Z,19.80
2022-09-15T12:25:31.188Z,19.60
2022-09-15T12:28:27.778Z,19.70
2022-09-15T12:31:26.331Z,19.70
2022-09-15T12:34:00.221Z,19.80
2022-09-15T12:36:37.286Z,20.00
2022-09-15T12:39:21.604Z,20.00
2022-09-15T12:41:51.185Z,20.10
2022-09-15T12:44:25.723Z,19.90
2022-09-15T12:46:57.178Z,19.90
2022-09-15T12:49:31.010Z,19.60
2022-09-15T12:52:01.497Z,19.40
2022-09-15T12:54:34.014Z,19.60
2022-09-15T12:57:03.102Z,19.30
2022-09-15T12:59:31.222Z,19.50
2022-09-15T13:02:00.170Z,19.60
2022-09-15T13:04:53.714Z,19.80
2022-09-15T13:07:36.026Z,19.30
2022-09-15T13:10:31.607Z,20.00
2022-09-15T13:13:12.914Z,19.30
2022-09-15T13:15:46.161Z,19.30
2022-09-15T13:18:16.125Z,19.30
2022-09-15T13:20:50.642Z,19.10
2022-09-15T13:23:23.890Z,18.90
2022-09-15T13:25:56.227Z,19.00
2022-09-15T13:28:25.261Z,19.00
2022-09-15T13:31:10.288Z,18.70
2022-09-15T13:40:27.410Z,18.70
2022-09-15T13:43:21.418Z,18.60
2022-09-15T13:46:05.136Z,18.70
2022-09-15T13:48:55.460Z,18.90
2022-09-15T13:51:27.010Z,18.70
2022-09-15T13:53:58.427Z,18.80
2022-09-15T13:56:28.680Z,18.70
2022-09-15T13:59:09.771Z,18.70
2022-09-15T14:01:42.960Z,18.70
2022-09-15T14:04:14.816Z,18.60
2022-09-15T14:06:45.306Z,18.60
2022-09-15T14:09:15.871Z,18.50
2022-09-15T14:11:44.947Z,18.50
2022-09-15T14:14:35.749Z,18.40
2022-09-15T14:17:04.289Z,18.50
2022-09-15T14:19:34.689Z,18.40
2022-09-15T14:22:03.463Z,18.40
2022-09-15T14:24:32.889Z,18.10
2022-09-15T14:27:08.429Z,18.00
2022-09-15T14:29:41.284Z,18.00
2022-09-15T14:32:14.448Z,17.80
2022-09-15T14:34:43.100Z,17.80
2022-09-15T14:37:20.147Z,18.00
2022-09-15T14:39:50.922Z,17.80
2022-09-15T14:42:21.853Z,17.90
2022-09-15T14:47:41.763Z,17.80
2022-09-15T14:50:14.199Z,17.80
2022-09-15T14:52:44.808Z,17.70
2022-09-15T14:55:17.822Z,17.80
2022-09-15T14:57:50.907Z,17.50
2022-09-15T15:00:24.542Z,17.50
2022-09-15T15:03:03.506Z,17.50
2022-09-15T15:05:36.666Z,17.50
2022-09-15T15:08:09.592Z,17.50
2022-09-15T15:10:38.231Z,17.50
2022-09-15T15:13:08.334Z,17.60
2022-09-15T15:15:39.054Z,17.70
2022-09-15T15:18:31.629Z,17.60
2022-09-15T15:21:00.245Z,17.60
2022-09-15T15:23:28.740Z,17.60
2022-09-15T15:26:27.312Z,17.60
2022-09-15T15:28:55.180Z,17.70
2022-09-15T15:31:26.716Z,17.80
2022-09-15T15:33:59.298Z,17.80
2022-09-15T15:36:29.134Z,17.90
2022-09-15T15:38:59.282Z,17.90
2022-09-15T15:41:29.329Z,17.70
2022-09-15T15:43:59.526Z,18.20
2022-09-15T15:46:51.084Z,17.90
2022-09-15T15:49:20.918Z,17.90
2022-09-15T15:51:49.071Z,17.90
2022-09-15T15:54:17.182Z,17.80
2022-09-15T15:56:45.326Z,18.00
2022-09-15T15:59:14.402Z,17.90
2022-09-15T16:01:43.190Z,17.90
2022-09-15T16:04:13.442Z,17.80
2022-09-15T16:06:41.768Z,17.80
2022-09-15T16:09:10.698Z,17.60
2022-09-15T16:11:38.600Z,17.90
2022-09-15T16:14:06.506Z,17.60
2022-09-15T16:16:34.513Z,17.60
2022-09-15T16:19:02.484Z,17.50
2022-09-15T16:21:37.289Z,17.50
2022-09-15T16:24:05.547Z,17.60
2022-09-15T16:26:35.478Z,17.50
2022-09-15T16:29:03.429Z,17.50
2022-09-15T16:31:32.006Z,17.60
2022-09-15T16:33:59.989Z,17.70
2022-09-15T16:36:28.081Z,17.30
2022-09-15T16:38:57.306Z,17.30
2022-09-15T16:41:26.980Z,17.30
2022-09-15T16:43:55.810Z,17.20
2022-09-15T16:46:23.938Z,17.10
2022-09-15T16:48:52.288Z,17.30
2022-09-15T16:51:29.529Z,17.20
2022-09-15T16:54:00.009Z,17.20
2022-09-15T16:56:27.996Z,17.10
2022-09-15T16:59:00.252Z,17.10
2022-09-15T17:01:28.946Z,17.10
2022-09-15T17:03:56.875Z,17.10
2022-09-15T17:06:24.759Z,17.00
2022-09-15T17:08:55.731Z,17.00
2022-09-15T17:11:25.609Z,16.90
2022-09-15T17:13:53.582Z,17.00
2022-09-15T17:16:24.142Z,17.00
2022-09-15T17:18:55.021Z,16.90
2022-09-15T17:21:22.875Z,16.80
2022-09-15T17:23:53.970Z,16.70
2022-09-15T17:26:27.641Z,17.10
2022-09-15T17:28:58.393Z,16.70
2022-09-15T17:31:26.331Z,16.60
2022-09-15T17:33:54.376Z,16.60
2022-09-15T17:36:22.294Z,16.50
2022-09-15T17:38:50.159Z,16.50
2022-09-15T17:41:19.752Z,16.50
2022-09-15T17:43:49.319Z,16.40
2022-09-15T17:46:17.363Z,16.30
2022-09-15T17:48:45.366Z,16.40
2022-09-15T17:51:17.274Z,16.50
2022-09-15T17:53:46.836Z,16.20
2022-09-15T17:56:14.957Z,16.20
2022-09-15T17:58:43.096Z,16.20
2022-09-15T18:01:14.786Z,16.20
2022-09-15T18:03:45.163Z,16.10
2022-09-15T18:06:13.127Z,16.10
2022-09-15T18:08:41.297Z,16.40
2022-09-15T18:11:09.269Z,16.10
2022-09-15T18:13:37.920Z,16.10
2022-09-15T18:16:07.833Z,16.10
2022-09-15T18:18:37.958Z,16.10
2022-09-15T18:21:09.684Z,16.70
2022-09-15T18:23:39.104Z,16.10
2022-09-15T18:26:07.123Z,16.10
2022-09-15T18:28:34.965Z,16.00
2022-09-15T18:31:02.878Z,16.60
2022-09-15T18:33:31.493Z,15.90
2022-09-15T18:36:01.433Z,15.80
2022-09-15T18:38:29.527Z,15.80
2022-09-15T18:40:58.378Z,15.80
2022-09-15T18:43:28.572Z,15.80
2022-09-15T18:45:59.616Z,15.80
2022-09-15T18:48:28.124Z,16.70
2022-09-15T18:50:56.028Z,15.50
2022-09-15T18:53:25.397Z,15.40
2022-09-15T18:55:53.238Z,15.40
2022-09-15T18:58:22.394Z,15.40
2022-09-15T19:00:50.324Z,15.40
2022-09-15T19:03:18.379Z,15.30
2022-09-15T19:05:46.453Z,15.30
2022-09-15T19:08:15.167Z,15.30
2022-09-15T19:10:44.800Z,15.20
2022-09-15T19:13:14.228Z,15.20
2022-09-15T19:15:43.859Z,15.30
2022-09-15T19:18:12.087Z,15.20
2022-09-15T19:20:40.277Z,15.30
2022-09-15T19:23:08.428Z,15.20
2022-09-15T19:25:36.472Z,15.20
2022-09-15T19:28:05.792Z,15.20
2022-09-15T19:30:33.928Z,15.10
2022-09-15T19:33:02.789Z,15.10
2022-09-15T19:35:30.708Z,15.10
2022-09-15T19:37:58.584Z,15.20
2022-09-15T19:40:26.783Z,15.10
2022-09-15T19:42:54.774Z,15.10
2022-09-15T19:45:23.989Z,15.20
2022-09-15T19:47:51.816Z,15.20
2022-09-15T19:50:19.937Z,15.20
2022-09-15T19:52:47.808Z,15.30
2022-09-15T19:55:15.682Z,15.30
2022-09-15T19:57:43.650Z,15.40
2022-09-15T20:00:13.819Z,15.30
2022-09-15T20:02:43.488Z,15.30
2022-09-15T20:07:59.037Z,15.30
2022-09-15T20:10:26.858Z,15.30
2022-09-15T20:12:54.785Z,15.30
2022-09-15T20:15:22.868Z,15.20
2022-09-15T20:17:52.016Z,15.20
2022-09-15T20:20:19.832Z,15.20
2022-09-15T20:22:47.741Z,15.20
2022-09-15T20:25:15.759Z,15.20
2022-09-15T20:27:44.079Z,15.10
2022-09-15T20:30:12.336Z,15.00
2022-09-15T20:32:40.171Z,15.10
2022-09-15T20:35:09.850Z,15.10
2022-09-15T20:37:37.854Z,15.10
2022-09-15T20:40:06.695Z,15.10
2022-09-15T20:42:34.672Z,15.10
2022-09-15T20:45:02.692Z,15.10
2022-09-15T20:47:30.672Z,15.10
2022-09-15T20:49:58.482Z,15.10
2022-09-15T20:52:34.755Z,15.10
2022-09-15T20:55:06.715Z,15.10
2022-09-15T20:57:34.561Z,15.10
2022-09-15T21:00:04.737Z,15.10
2022-09-15T21:02:32.678Z,15.00
2022-09-15T21:05:00.588Z,15.00
2022-09-15T21:07:29.769Z,14.90
2022-09-15T21:09:57.588Z,15.00
2022-09-15T21:12:25.484Z,15.00
2022-09-15T21:14:53.399Z,15.00
2022-09-15T21:17:21.781Z,15.10
2022-09-15T21:19:49.593Z,15.00
2022-09-15T21:22:17.447Z,15.00
2022-09-15T21:24:46.611Z,15.00
2022-09-15T21:27:30.600Z,14.90
2022-09-15T21:29:58.475Z,14.90
2022-09-15T21:32:26.366Z,14.90
2022-09-15T21:34:55.832Z,14.90
2022-09-15T21:37:23.735Z,14.90
2022-09-15T21:39:52.933Z,14.80
2022-09-15T21:42:20.825Z,14.80
2022-09-15T21:44:48.724Z,14.80
2022-09-15T21:47:16.548Z,14.80
2022-09-15T21:49:44.477Z,14.80
2022-09-15T21:52:12.696Z,14.80
2022-09-15T21:54:40.601Z,14.70
2022-09-15T21:57:10.110Z,14.70
2022-09-15T21:59:37.924Z,14.60
2022-09-15T22:02:05.851Z,14.70
2022-09-15T22:04:34.439Z,14.70
2022-09-15T22:07:04.417Z,14.60
2022-09-15T22:09:32.240Z,14.70
2022-09-15T22:12:00.051Z,14.60
2022-09-15T22:14:29.283Z,14.70
2022-09-15T22:16:57.153Z,14.60
2022-09-15T22:19:25.015Z,14.50
2022-09-15T22:21:52.879Z,14.50
2022-09-15T22:24:20.706Z,14.50
2022-09-15T22:26:48.765Z,14.50
2022-09-15T22:29:16.597Z,15.80
2022-09-15T22:31:45.853Z,14.50
2022-09-15T22:34:13.738Z,14.50
2022-09-15T22:36:41.609Z,14.50
2022-09-15T22:39:09.498Z,14.50
2022-09-15T22:41:39.329Z,14.60
2022-09-15T22:44:08.353Z,14.50
2022-09-15T22:46:36.254Z,14.50
2022-09-15T22:49:05.471Z,14.50
2022-09-15T22:51:33.293Z,14.50
2022-09-15T22:54:02.927Z,14.80
2022-09-15T22:56:31.242Z,14.50
2022-09-15T22:58:59.138Z,14.50
2022-09-15T23:01:29.552Z,14.50
2022-09-15T23:03:59.231Z,14.50
2022-09-15T23:06:30.816Z,14.50
2022-09-15T23:09:00.538Z,14.50
2022-09-15T23:11:30.052Z,14.50
2022-09-15T23:13:58.470Z,14.50
2022-09-15T23:16:27.322Z,14.50
2022-09-15T23:18:55.933Z,14.40
2022-09-15T23:21:23.950Z,14.70
2022-09-15T23:23:55.019Z,14.50
2022-09-15T23:26:24.709Z,14.50
2022-09-15T23:28:53.168Z,14.50
2022-09-15T23:31:21.675Z,15.20
2022-09-15T23:33:49.925Z,14.50
2022-09-15T23:36:20.089Z,14.70
2022-09-15T23:38:49.175Z,14.50
2022-09-15T23:41:19.249Z,14.50
2022-09-15T23:43:47.540Z,14.50
2022-09-15T23:46:15.734Z,14.50
2022-09-15T23:48:43.722Z,14.50
2022-09-15T23:51:11.733Z,14.60
2022-09-15T23:53:39.850Z,14.60
2022-09-15T23:56:08.328Z,15.40
2022-09-15T23:58:37.580Z,14.60
